createdAt,value
2023-01-01T00:00:26.333Z,13.00
2023-01-01T00:04:36.668Z,12.90
2023-01-01T00:08:46.789Z,12.90
2023-01-01T00:12:56.355Z,12.90
2023-01-01T00:17:07.621Z,12.90
2023-01-01T00:21:18.271Z,12.90
2023-01-01T00:25:28.087Z,12.80
2023-01-01T00:29:38.732Z,12.90
2023-01-01T00:33:54.048Z,12.80
2023-01-01T00:38:03.522Z,12.80
2023-01-01T00:42:13.429Z,12.90
2023-01-01T00:46:23.150Z,12.90
2023-01-01T00:50:35.144Z,12.90
2023-01-01T00:54:45.443Z,12.90
2023-01-01T00:59:00.905Z,13.00
2023-01-01T01:03:28.677Z,13.00
2023-01-01T01:55:03.141Z,12.80
2023-01-01T01:59:18.017Z,12.80
2023-01-01T02:22:24.714Z,12.80
2023-01-01T02:26:48.856Z,12.70
2023-01-01T02:31:04.020Z,12.70
2023-01-01T02:35:42.993Z,12.70
2023-01-01T02:40:01.512Z,12.80
2023-01-01T02:44:18.117Z,12.70
2023-01-01T02:48:48.519Z,12.70
2023-01-01T02:53:09.588Z,12.70
2023-01-01T02:57:37.242Z,12.80
2023-01-01T03:01:50.997Z,12.80
2023-01-01T03:06:26.365Z,12.80
2023-01-01T03:10:45.618Z,12.80
2023-01-01T03:15:00.197Z,12.70
2023-01-01T03:19:16.319Z,12.70
2023-01-01T03:23:36.144Z,12.60
2023-01-01T03:27:52.493Z,12.60
2023-01-01T03:32:07.921Z,12.60
2023-01-01T03:36:25.170Z,12.70
2023-01-01T03:40:42.615Z,12.60
2023-01-01T03:45:01.591Z,12.60
2023-01-01T03:49:18.817Z,12.60
2023-01-01T03:53:45.121Z,12.60
2023-01-01T03:58:09.093Z,12.60
2023-01-01T04:02:32.886Z,12.50
2023-01-01T04:06:49.010Z,12.50
2023-01-01T04:11:23.355Z,12.50
2023-01-01T04:15:44.416Z,12.50
2023-01-01T04:19:55.350Z,12.60
2023-01-01T04:24:07.175Z,12.60
2023-01-01T04:28:23.327Z,12.60
2023-01-01T04:32:41.384Z,12.60
2023-01-01T04:36:52.837Z,12.60
2023-01-01T04:41:08.121Z,12.50
2023-01-01T04:45:21.708Z,12.40
2023-01-01T04:49:36.446Z,12.40
2023-01-01T04:53:55.359Z,12.40
2023-01-01T04:58:18.856Z,12.40
2023-01-01T05:02:44.566Z,12.40
2023-01-01T05:11:29.030Z,12.40
2023-01-01T05:15:43.483Z,12.30
2023-01-01T05:19:57.937Z,12.40
2023-01-01T05:24:19.051Z,12.30
2023-01-01T05:28:29.405Z,12.20
2023-01-01T05:32:39.899Z,12.30
2023-01-01T05:36:51.108Z,12.30
2023-01-01T05:41:14.895Z,12.40
2023-01-01T05:45:28.402Z,12.40
2023-01-01T05:49:51.360Z,12.40
2023-01-01T05:54:05.678Z,12.40
2023-01-01T05:58:27.347Z,12.40
2023-01-01T06:02:39.147Z,12.40
2023-01-01T06:11:21.983Z,12.30
2023-01-01T06:15:37.186Z,12.30
2023-01-01T06:19:53.792Z,12.40
2023-01-01T06:24:09.063Z,12.50
2023-01-01T06:28:25.928Z,12.50
2023-01-01T06:32:42.889Z,12.60
2023-01-01T06:37:13.899Z,12.60
2023-01-01T06:41:34.833Z,12.60
2023-01-01T06:45:53.234Z,12.60
2023-01-01T06:50:10.460Z,12.60
2023-01-01T06:54:28.672Z,12.60
2023-01-01T06:58:42.354Z,12.50
2023-01-01T07:03:10.107Z,12.60
2023-01-01T07:07:38.015Z,12.60
2023-01-01T07:12:02.031Z,12.60
2023-01-01T07:16:25.651Z,12.70
2023-01-01T07:20:42.868Z,12.70
2023-01-01T07:25:19.498Z,12.70
2023-01-01T07:29:38.709Z,12.70
2023-01-01T07:33:56.071Z,12.70
2023-01-01T07:38:06.493Z,12.70
2023-01-01T07:42:18.966Z,12.70
2023-01-01T07:51:12.542Z,12.60
2023-01-01T07:55:56.354Z,12.70
2023-01-01T08:05:18.724Z,12.70
2023-01-01T08:09:36.536Z,12.70
2023-01-01T08:13:48.276Z,12.70
2023-01-01T08:18:14.803Z,12.70
2023-01-01T08:22:27.540Z,12.70
2023-01-01T08:26:47.819Z,12.70
2023-01-01T09:16:44.245Z,12.90
2023-01-01T09:41:31.071Z,12.30
2023-01-01T10:30:05.353Z,12.40
2023-01-01T13:37:58.015Z,11.20
2023-01-01T13:42:44.966Z,11.20
2023-01-01T14:44:53.779Z,10.80
2023-01-01T15:44:20.307Z,10.80
2023-01-01T15:48:34.202Z,10.80
2023-01-01T15:52:50.454Z,10.80
2023-01-01T15:57:04.918Z,10.90
2023-01-01T16:20:19.340Z,10.70
2023-01-01T17:30:47.331Z,10.90
2023-01-01T17:34:58.409Z,10.90
2023-01-01T17:39:13.426Z,10.90
2023-01-01T17:43:25.087Z,10.80
2023-01-01T17:47:36.061Z,10.90
2023-01-01T17:51:48.545Z,10.90
2023-01-01T17:55:58.221Z,10.80
2023-01-01T18:00:11.514Z,10.70
2023-01-01T18:04:23.256Z,10.70
2023-01-01T18:08:39.514Z,10.70
2023-01-01T18:12:49.787Z,10.70
2023-01-01T18:16:59.579Z,10.60
2023-01-01T18:21:19.900Z,10.60
2023-01-01T18:25:30.816Z,10.60
2023-01-01T18:29:40.501Z,10.60
2023-01-01T18:33:51.625Z,10.60
2023-01-01T18:38:03.753Z,10.60
2023-01-01T18:42:23.661Z,10.60
2023-01-01T18:46:38.621Z,10.60
2023-01-01T18:51:20.521Z,10.60
2023-01-01T18:57:05.518Z,10.70
2023-01-01T19:01:36.892Z,10.70
2023-01-01T19:10:26.667Z,10.60
2023-01-01T19:14:38.236Z,10.50
2023-01-01T19:19:07.632Z,10.50
2023-01-01T19:23:34.485Z,10.60
2023-01-01T19:28:11.827Z,10.60
2023-01-01T19:32:26.207Z,10.70
2023-01-01T19:36:51.900Z,10.70
2023-01-01T19:41:10.590Z,10.70
2023-01-01T19:45:28.986Z,10.70
2023-01-01T19:49:42.831Z,10.60
2023-01-01T19:54:36.897Z,10.70
2023-01-01T19:58:47.115Z,10.60
2023-01-01T20:03:12.906Z,10.50
2023-01-01T20:07:31.846Z,10.50
2023-01-01T20:11:50.657Z,10.50
2023-01-01T20:16:02.474Z,10.50
2023-01-01T20:20:20.918Z,10.50
2023-01-01T20:24:33.737Z,10.40
2023-01-01T20:29:01.898Z,10.40
2023-01-01T20:33:13.686Z,10.40
2023-01-01T20:37:43.811Z,10.30
2023-01-01T20:41:53.724Z,10.40
2023-01-01T20:46:05.144Z,10.30
2023-01-01T20:50:20.524Z,10.40
2023-01-01T20:54:30.681Z,10.30
2023-01-01T20:58:49.343Z,10.40
2023-01-01T21:03:05.178Z,10.40
2023-01-01T21:12:04.424Z,10.40
2023-01-01T21:16:19.723Z,10.50
2023-01-01T21:20:36.613Z,10.50
2023-01-01T21:24:54.521Z,10.50
2023-01-01T21:29:14.617Z,10.50
2023-01-01T21:33:30.906Z,10.50
2023-01-01T21:38:01.045Z,10.50
2023-01-01T21:42:26.443Z,10.50
2023-01-01T21:46:47.151Z,10.50
2023-01-01T21:51:05.720Z,10.50
2023-01-01T21:55:58.057Z,10.60
